createdAt,value
2019-06-01T00:02:09.341Z,36.85
2019-06-01T00:04:38.641Z,31.68
2019-06-01T00:07:07.508Z,39.65
2019-06-01T00:09:36.177Z,34.83
2019-06-01T00:12:04.843Z,36.00
2019-06-01T00:14:33.540Z,39.85
2019-06-01T00:17:02.215Z,39.27
2019-06-01T00:19:30.889Z,48.73
2019-06-01T00:21:59.589Z,51.75
2019-06-01T00:24:28.255Z,50.92
2019-06-01T00:26:56.962Z,36.88
2019-06-01T00:29:25.653Z,35.13
2019-06-01T00:31:54.334Z,35.68
2019-06-01T00:34:23.041Z,31.93
2019-06-01T00:36:51.999Z,32.55
2019-06-01T00:39:20.779Z,34.38
2019-06-01T00:41:50.240Z,38.75
2019-06-01T00:44:18.940Z,37.33
2019-06-01T00:46:48.724Z,40.17
2019-06-01T00:49:17.491Z,37.98
2019-06-01T00:51:47.026Z,38.38
2019-06-01T00:54:15.737Z,36.95
2019-06-01T00:56:45.590Z,39.15
2019-06-01T00:59:14.397Z,36.93
2019-06-01T01:01:43.876Z,34.63
2019-06-01T01:04:12.745Z,31.82
2019-06-01T01:06:41.444Z,29.95
2019-06-01T01:09:10.154Z,35.28
2019-06-01T01:11:38.877Z,33.80
2019-06-01T01:14:07.690Z,33.48
2019-06-01T01:16:36.351Z,31.73
2019-06-01T01:19:06.503Z,30.92
2019-06-01T01:21:35.941Z,25.00
2019-06-01T01:24:04.920Z,28.45
2019-06-01T01:26:33.618Z,26.10
2019-06-01T01:29:02.330Z,31.10
2019-06-01T01:31:30.995Z,35.95
2019-06-01T01:33:59.686Z,41.20
2019-06-01T01:36:28.390Z,40.50
2019-06-01T01:38:58.242Z,40.28
2019-06-01T01:41:27.133Z,44.20
2019-06-01T01:43:56.557Z,43.05
2019-06-01T01:46:25.286Z,51.33
2019-06-01T01:48:54.332Z,48.23
2019-06-01T01:51:23.144Z,49.80
2019-06-01T01:53:53.011Z,44.93
2019-06-01T01:56:21.795Z,41.58
2019-06-01T01:58:50.498Z,44.88
2019-06-01T02:01:22.750Z,42.15
2019-06-01T02:03:51.427Z,36.17
2019-06-01T02:06:20.018Z,35.60
2019-06-01T02:08:48.707Z,37.08
2019-06-01T02:11:17.369Z,37.00
2019-06-01T02:13:46.071Z,53.42
2019-06-01T02:16:14.731Z,42.88
2019-06-01T02:18:43.451Z,53.08
2019-06-01T02:21:12.138Z,49.65
2019-06-01T02:23:40.846Z,55.63
2019-06-01T02:26:09.563Z,51.83
2019-06-01T02:28:38.276Z,52.95
2019-06-01T02:31:06.970Z,54.10
2019-06-01T02:33:35.640Z,43.68
2019-06-01T02:36:05.393Z,47.53
2019-06-01T02:38:34.200Z,52.55
2019-06-01T02:41:05.076Z,44.90
2019-06-01T02:43:33.670Z,44.58
2019-06-01T02:46:02.928Z,45.83
2019-06-01T02:48:32.912Z,45.88
2019-06-01T02:51:01.854Z,39.67
2019-06-01T02:53:30.729Z,46.80
2019-06-01T02:55:59.947Z,44.67
2019-06-01T02:58:28.671Z,45.40
2019-06-01T03:01:36.305Z,44.73
2019-06-01T03:04:08.347Z,47.33
2019-06-01T03:06:39.809Z,54.90
2019-06-01T03:09:09.261Z,51.80
2019-06-01T03:11:39.236Z,53.25
2019-06-01T03:14:09.698Z,44.35
2019-06-01T03:16:40.420Z,48.95
2019-06-01T03:19:09.629Z,38.73
2019-06-01T03:21:38.760Z,38.02
2019-06-01T03:24:09.891Z,37.63
2019-06-01T03:26:44.366Z,43.83
2019-06-01T03:29:19.585Z,44.00
2019-06-01T03:31:48.346Z,45.08
2019-06-01T03:34:17.084Z,53.55
2019-06-01T03:36:45.818Z,53.23
2019-06-01T03:39:14.575Z,56.23
2019-06-01T03:41:43.614Z,57.98
2019-06-01T03:44:12.998Z,52.75
2019-06-01T03:46:41.891Z,61.10
2019-06-01T03:49:11.853Z,52.73
2019-06-01T03:51:40.721Z,49.70
2019-06-01T03:54:10.128Z,49.45
2019-06-01T03:56:39.092Z,50.90
2019-06-01T03:59:07.781Z,52.08
2019-06-01T04:01:36.892Z,53.28
2019-06-01T04:04:07.137Z,58.33
2019-06-01T04:06:36.074Z,60.48
2019-06-01T04:09:07.748Z,53.42
2019-06-01T04:11:36.697Z,48.55
2019-06-01T04:14:05.942Z,43.87
2019-06-01T04:16:34.611Z,41.77
2019-06-01T04:19:03.780Z,49.38
2019-06-01T04:21:32.454Z,48.78
2019-06-01T04:24:01.869Z,49.60
2019-06-01T04:26:30.715Z,46.23
2019-06-01T04:28:59.475Z,48.17
2019-06-01T04:31:28.161Z,44.80
2019-06-01T04:33:56.898Z,47.00
2019-06-01T04:36:25.575Z,49.18
2019-06-01T04:38:54.243Z,42.98
2019-06-01T04:41:22.937Z,37.08
2019-06-01T04:43:51.666Z,33.42
2019-06-01T04:46:20.343Z,41.65
2019-06-01T04:48:49.006Z,46.70
2019-06-01T04:51:17.698Z,46.98
2019-06-01T04:53:46.362Z,44.50
2019-06-01T04:56:15.312Z,46.10
2019-06-01T04:58:44.011Z,46.18
2019-06-01T05:01:13.053Z,38.63
2019-06-01T05:03:41.835Z,41.05
2019-06-01T05:06:11.343Z,40.12
2019-06-01T05:08:40.080Z,41.18
2019-06-01T05:11:10.185Z,36.53
2019-06-01T05:13:39.370Z,35.05
2019-06-01T05:16:08.045Z,29.90
2019-06-01T05:18:36.719Z,27.98
2019-06-01T05:21:06.408Z,30.35
2019-06-01T05:23:35.232Z,25.82
2019-06-01T05:26:03.989Z,22.50
2019-06-01T05:28:32.671Z,20.55
2019-06-01T05:31:01.350Z,20.70
2019-06-01T05:33:37.478Z,22.77
2019-06-01T05:36:00.444Z,22.70
2019-06-01T05:38:29.124Z,19.80
2019-06-01T05:40:57.796Z,21.37
2019-06-01T05:43:26.477Z,21.20
2019-06-01T05:45:55.137Z,22.77
2019-06-01T05:48:28.504Z,19.10
2019-06-01T05:50:54.245Z,18.50
2019-06-01T05:53:23.149Z,16.73
2019-06-01T05:55:51.863Z,19.95
2019-06-01T05:58:21.782Z,20.12
2019-06-01T06:00:50.598Z,18.50
2019-06-01T06:03:22.265Z,19.87
2019-06-01T06:05:49.674Z,14.47
2019-06-01T06:08:18.359Z,12.60
2019-06-01T06:10:47.054Z,16.95
2019-06-01T06:13:15.715Z,17.00
2019-06-01T06:15:44.407Z,17.70
2019-06-01T06:18:13.687Z,16.48
2019-06-01T06:20:42.517Z,18.15
2019-06-01T06:23:12.212Z,15.40
2019-06-01T06:25:41.497Z,18.23
2019-06-01T06:28:10.275Z,15.98
2019-06-01T06:30:38.981Z,17.02
2019-06-01T06:33:07.668Z,13.03
2019-06-01T06:35:36.354Z,14.45
2019-06-01T06:38:05.059Z,14.58
2019-06-01T06:40:33.731Z,15.83
2019-06-01T06:43:02.410Z,14.00
2019-06-01T06:45:31.100Z,14.55
2019-06-01T06:48:00.108Z,14.95
2019-06-01T06:50:28.784Z,13.98
2019-06-01T06:52:57.472Z,13.00
2019-06-01T06:55:26.256Z,17.32
2019-06-01T06:57:54.868Z,15.00
2019-06-01T07:00:24.811Z,13.50
2019-06-01T07:02:53.645Z,16.05
2019-06-01T07:05:23.481Z,12.28
2019-06-01T07:07:52.190Z,13.53
2019-06-01T07:10:22.085Z,12.10
2019-06-01T07:12:50.933Z,10.93
2019-06-01T07:15:19.671Z,13.78
2019-06-01T07:17:48.338Z,12.88
2019-06-01T07:20:17.201Z,11.45
2019-06-01T07:22:45.842Z,9.90
2019-06-01T07:25:14.659Z,13.58
2019-06-01T07:27:43.332Z,16.12
2019-06-01T07:30:12.193Z,9.93
2019-06-01T07:32:40.885Z,10.23
2019-06-01T07:35:09.704Z,12.23
2019-06-01T07:37:38.375Z,9.78
2019-06-01T07:40:13.066Z,10.38
2019-06-01T07:42:38.965Z,10.70
2019-06-01T07:45:08.056Z,9.25
2019-06-01T07:47:36.710Z,10.88
2019-06-01T07:50:06.014Z,11.38
2019-06-01T07:52:34.698Z,9.45
2019-06-01T07:55:03.466Z,7.53
2019-06-01T07:57:32.150Z,10.65
2019-06-01T08:00:00.808Z,9.08
2019-06-01T08:02:30.757Z,7.05
2019-06-01T08:04:59.636Z,7.12
2019-06-01T08:07:29.234Z,10.63
2019-06-01T08:09:58.101Z,7.47
2019-06-01T08:12:27.509Z,6.60
2019-06-01T08:14:56.214Z,11.30
2019-06-01T08:17:25.974Z,6.40
2019-06-01T08:19:54.811Z,6.05
2019-06-01T08:22:23.860Z,6.37
2019-06-01T08:24:52.629Z,6.08
2019-06-01T08:27:22.398Z,7.95
2019-06-01T08:29:51.220Z,9.55
2019-06-01T08:32:19.900Z,8.10
2019-06-01T08:34:48.556Z,7.53
2019-06-01T08:37:17.251Z,6.15
2019-06-01T08:39:45.914Z,7.70
2019-06-01T08:42:14.575Z,5.50
2019-06-01T08:44:43.260Z,6.05
2019-06-01T08:47:12.005Z,9.65
2019-06-01T08:49:40.707Z,8.38
2019-06-01T08:52:09.381Z,7.22
2019-06-01T08:54:38.039Z,6.10
2019-06-01T08:57:06.699Z,6.42
2019-06-01T08:59:35.382Z,5.20
2019-06-01T09:02:04.191Z,5.37
2019-06-01T09:04:32.870Z,5.65
2019-06-01T09:07:01.542Z,3.90
2019-06-01T09:09:31.014Z,5.60
2019-06-01T09:11:59.749Z,4.22
2019-06-01T09:14:29.193Z,4.58
2019-06-01T09:16:57.950Z,5.30
2019-06-01T09:19:27.341Z,3.87
2019-06-01T09:21:56.059Z,4.30
2019-06-01T09:24:25.772Z,4.15
2019-06-01T09:26:54.513Z,3.80
2019-06-01T09:29:23.196Z,5.40
2019-06-01T09:31:51.913Z,6.30
2019-06-01T09:34:20.567Z,4.33
2019-06-01T09:36:49.222Z,4.50
2019-06-01T09:39:17.911Z,8.03
2019-06-01T09:41:46.563Z,4.30
2019-06-01T09:44:15.258Z,4.90
2019-06-01T09:46:43.911Z,5.80
2019-06-01T09:49:12.573Z,12.28
2019-06-01T09:51:41.274Z,5.95
2019-06-01T09:54:09.922Z,4.22
2019-06-01T09:56:39.899Z,4.53
2019-06-01T09:59:08.801Z,3.52
2019-06-01T10:01:38.746Z,4.15
2019-06-01T10:04:09.180Z,3.80
2019-06-01T10:06:38.705Z,3.37
2019-06-01T10:09:09.093Z,5.53
2019-06-01T10:11:38.094Z,5.40
2019-06-01T10:14:07.045Z,5.85
2019-06-01T10:16:36.787Z,5.25
2019-06-01T10:19:05.670Z,3.87
2019-06-01T10:21:34.344Z,5.17
2019-06-01T10:24:03.073Z,3.25
2019-06-01T10:26:31.707Z,3.20
2019-06-01T10:29:00.406Z,5.05
2019-06-01T10:31:30.438Z,3.65
2019-06-01T10:33:59.253Z,3.62
2019-06-01T10:36:28.115Z,3.75
2019-06-01T10:38:56.779Z,6.75
2019-06-01T10:41:25.466Z,3.22
2019-06-01T10:43:54.132Z,7.03
2019-06-01T10:46:22.797Z,2.80
2019-06-01T10:48:51.550Z,6.05
2019-06-01T10:51:20.184Z,3.90
2019-06-01T10:53:48.853Z,3.67
2019-06-01T10:56:17.725Z,4.00
2019-06-01T10:58:59.247Z,3.02
2019-06-01T11:01:16.804Z,7.45
2019-06-01T11:03:45.463Z,4.60
2019-06-01T11:06:14.126Z,2.98
2019-06-01T11:08:43.163Z,4.97
2019-06-01T11:11:12.117Z,4.15
2019-06-01T11:13:41.146Z,5.67
2019-06-01T11:16:09.927Z,3.92
2019-06-01T11:18:39.620Z,2.45
2019-06-01T11:21:08.461Z,2.37
2019-06-01T11:23:37.473Z,3.55
2019-06-01T11:26:06.337Z,2.50
2019-06-01T11:28:36.175Z,3.10
2019-06-01T11:31:05.460Z,2.75
2019-06-01T11:33:34.284Z,2.55
2019-06-01T11:36:03.081Z,4.37
2019-06-01T11:38:31.739Z,2.55
2019-06-01T11:41:00.435Z,3.42
2019-06-01T11:43:29.093Z,2.70
2019-06-01T11:45:58.021Z,2.92
2019-06-01T11:48:26.692Z,5.58
2019-06-01T11:50:55.358Z,3.05
2019-06-01T11:53:24.050Z,3.47
2019-06-01T11:55:52.723Z,4.45
2019-06-01T11:58:21.419Z,3.42
2019-06-01T12:00:50.075Z,2.30
2019-06-01T12:03:18.763Z,4.00
2019-06-01T12:05:47.455Z,4.70
2019-06-01T12:08:16.102Z,3.33
2019-06-01T12:10:45.310Z,3.35
2019-06-01T12:13:14.037Z,2.33
2019-06-01T12:15:42.702Z,2.60
2019-06-01T12:18:11.363Z,1.87
2019-06-01T12:20:40.705Z,3.00
2019-06-01T12:23:09.619Z,3.05
2019-06-01T12:25:38.368Z,2.65
2019-06-01T12:28:07.025Z,2.50
2019-06-01T12:30:35.723Z,3.08
2019-06-01T12:33:04.508Z,4.37
2019-06-01T12:35:33.166Z,3.83
2019-06-01T12:38:06.418Z,2.62
2019-06-01T12:40:32.266Z,2.80
2019-06-01T12:43:00.984Z,2.40
2019-06-01T12:45:29.648Z,2.77
2019-06-01T12:47:58.777Z,3.87
2019-06-01T12:50:27.555Z,2.83
2019-06-01T12:52:56.242Z,2.72
2019-06-01T12:55:24.963Z,1.95
2019-06-01T12:57:53.621Z,2.02
2019-06-01T13:00:22.407Z,2.58
2019-06-01T13:03:03.406Z,2.10
2019-06-01T13:05:21.571Z,4.78
2019-06-01T13:07:59.771Z,4.45
2019-06-01T13:10:20.829Z,2.85
2019-06-01T13:12:49.531Z,3.35
2019-06-01T13:15:19.017Z,2.00
2019-06-01T13:17:47.708Z,5.65
2019-06-01T13:20:16.511Z,3.22
2019-06-01T13:22:45.626Z,2.47
2019-06-01T13:25:14.938Z,2.35
2019-06-01T13:27:44.255Z,2.30
2019-06-01T13:30:13.719Z,7.78
2019-06-01T13:32:42.586Z,2.17
2019-06-01T13:35:11.611Z,3.00
2019-06-01T13:37:40.322Z,3.72
2019-06-01T13:40:09.326Z,4.40
2019-06-01T13:42:37.987Z,3.60
2019-06-01T13:45:06.865Z,3.77
2019-06-01T13:47:35.532Z,2.10
2019-06-01T13:50:06.624Z,4.15
2019-06-01T13:52:35.669Z,1.92
2019-06-01T13:55:04.832Z,2.58
2019-06-01T13:57:33.495Z,3.98
2019-06-01T14:00:02.166Z,2.45
2019-06-01T14:02:30.835Z,2.00
2019-06-01T14:04:59.540Z,1.62
2019-06-01T14:07:28.235Z,1.80
2019-06-01T14:09:56.922Z,1.62
2019-06-01T14:12:25.582Z,2.05
2019-06-01T14:14:55.525Z,3.05
2019-06-01T14:17:24.307Z,3.25
2019-06-01T14:19:53.809Z,2.10
2019-06-01T14:22:22.627Z,1.92
2019-06-01T14:25:07.274Z,4.10
2019-06-01T14:27:21.746Z,1.80
2019-06-01T14:29:50.410Z,1.90
2019-06-01T14:32:22.487Z,3.40
2019-06-01T14:34:51.770Z,1.85
2019-06-01T14:37:21.739Z,5.47
2019-06-01T14:39:50.854Z,2.35
2019-06-01T14:42:19.650Z,1.80
2019-06-01T14:44:49.297Z,2.77
2019-06-01T14:47:18.804Z,1.82
2019-06-01T14:49:47.646Z,2.10
2019-06-01T14:52:16.320Z,3.45
2019-06-01T14:54:44.967Z,2.15
2019-06-01T14:57:13.750Z,2.17
2019-06-01T14:59:42.508Z,2.65
2019-06-01T15:02:11.174Z,2.05
2019-06-01T15:04:39.864Z,4.80
2019-06-01T15:07:08.523Z,2.92
2019-06-01T15:09:37.181Z,3.10
2019-06-01T15:12:06.055Z,5.72
2019-06-01T15:14:34.740Z,4.80
2019-06-01T15:17:03.490Z,3.80
2019-06-01T15:19:32.308Z,3.58
2019-06-01T15:22:03.478Z,15.63
2019-06-01T15:24:32.322Z,1.50
2019-06-01T15:27:01.006Z,1.67
2019-06-01T15:29:29.664Z,4.17
2019-06-01T15:31:58.349Z,2.22
2019-06-01T15:34:27.097Z,1.95
2019-06-01T15:36:55.782Z,2.55
2019-06-01T15:39:25.540Z,1.90
2019-06-01T15:41:55.242Z,5.22
2019-06-01T15:44:23.941Z,2.40
2019-06-01T15:46:53.742Z,3.75
2019-06-01T15:49:22.838Z,1.85
2019-06-01T15:51:51.836Z,2.35
2019-06-01T15:54:20.616Z,2.00
2019-06-01T15:56:49.304Z,2.77
2019-06-01T15:59:17.958Z,2.02
2019-06-01T16:01:46.653Z,2.70
2019-06-01T16:04:15.345Z,4.17
2019-06-01T16:06:44.018Z,2.80
2019-06-01T16:09:12.683Z,1.60
2019-06-01T16:11:41.347Z,7.08
2019-06-01T16:14:10.005Z,2.10
2019-06-01T16:16:38.695Z,2.12
2019-06-01T16:19:08.026Z,1.95
2019-06-01T16:21:36.908Z,2.35
2019-06-01T16:24:06.143Z,2.25
2019-06-01T16:26:34.974Z,5.62
2019-06-01T16:29:04.985Z,2.00
2019-06-01T16:31:33.869Z,2.40
2019-06-01T16:34:02.878Z,1.72
2019-06-01T16:36:31.718Z,7.12
2019-06-01T16:39:04.527Z,2.75
2019-06-01T16:41:30.803Z,2.47
2019-06-01T16:43:59.583Z,2.37
2019-06-01T16:46:28.228Z,1.77
2019-06-01T16:48:57.469Z,3.90
2019-06-01T16:51:26.324Z,2.37
2019-06-01T16:53:55.756Z,1.87
2019-06-01T16:56:24.536Z,2.35
2019-06-01T16:58:53.183Z,1.80
2019-06-01T17:01:21.860Z,4.10
2019-06-01T17:03:50.534Z,2.35
2019-06-01T17:06:19.273Z,3.10
2019-06-01T17:08:47.949Z,3.25
2019-06-01T17:11:16.647Z,2.85
2019-06-01T17:13:45.300Z,3.17
2019-06-01T17:16:13.973Z,3.80
2019-06-01T17:18:42.661Z,4.60
2019-06-01T17:21:11.317Z,2.45
2019-06-01T17:23:39.971Z,2.20
2019-06-01T17:26:08.970Z,2.67
2019-06-01T17:28:37.681Z,3.30
2019-06-01T17:31:06.508Z,2.47
2019-06-01T17:33:35.158Z,2.50
2019-06-01T17:36:04.739Z,2.55
2019-06-01T17:38:33.492Z,3.20
2019-06-01T17:41:02.285Z,3.95
2019-06-01T17:43:30.876Z,3.05
2019-06-01T17:46:00.467Z,6.50
2019-06-01T17:48:29.487Z,2.58
2019-06-01T17:50:58.164Z,4.35
2019-06-01T17:53:26.892Z,3.30
2019-06-01T17:55:55.565Z,3.20
2019-06-01T17:58:24.497Z,2.50
2019-06-01T18:00:53.249Z,3.27
2019-06-01T18:03:21.985Z,3.50
2019-06-01T18:05:50.703Z,3.45
2019-06-01T18:08:19.533Z,5.78
2019-06-01T18:10:54.298Z,3.47
2019-06-01T18:13:18.645Z,4.35
2019-06-01T18:15:49.991Z,2.47
2019-06-01T18:18:17.922Z,2.65
2019-06-01T18:20:46.776Z,7.08
2019-06-01T18:23:15.426Z,3.60
2019-06-01T18:25:44.247Z,4.78
2019-06-01T18:28:19.009Z,6.15
2019-06-01T18:30:43.544Z,2.87
2019-06-01T18:33:13.179Z,4.17
2019-06-01T18:35:42.085Z,3.37
2019-06-01T18:38:12.763Z,2.87
2019-06-01T18:40:41.280Z,3.05
2019-06-01T18:43:14.246Z,5.28
2019-06-01T18:48:12.250Z,3.17
2019-06-01T18:50:41.095Z,3.77
2019-06-01T18:53:10.115Z,5.92
2019-06-01T18:55:38.814Z,3.12
2019-06-01T18:58:08.259Z,4.10
2019-06-01T19:00:39.581Z,3.65
2019-06-01T19:03:09.008Z,3.92
2019-06-01T19:05:37.873Z,3.90
2019-06-01T19:08:07.191Z,5.08
2019-06-01T19:10:36.006Z,4.33
2019-06-01T19:13:05.602Z,5.33
2019-06-01T19:15:34.548Z,9.35
2019-06-01T19:18:03.210Z,5.95
2019-06-01T19:20:33.256Z,4.97
2019-06-01T19:23:02.160Z,5.65
2019-06-01T19:25:30.852Z,6.15
2019-06-01T19:27:59.513Z,4.83
2019-06-01T19:30:42.070Z,5.03
2019-06-01T19:33:14.226Z,5.77
2019-06-01T19:35:41.857Z,6.95
2019-06-01T19:38:11.399Z,8.08
2019-06-01T19:40:41.205Z,4.87
2019-06-01T19:43:11.423Z,5.78
2019-06-01T19:45:40.307Z,7.17
2019-06-01T19:48:10.361Z,5.45
2019-06-01T19:50:39.229Z,5.42
2019-06-01T19:53:08.720Z,5.45
2019-06-01T19:55:37.575Z,6.30
2019-06-01T19:58:06.305Z,6.08
2019-06-01T20:00:35.078Z,5.90
2019-06-01T20:03:03.846Z,6.25
2019-06-01T20:05:32.707Z,6.20
2019-06-01T20:08:01.376Z,6.17
2019-06-01T20:10:30.092Z,5.67
2019-06-01T20:12:58.763Z,6.65
2019-06-01T20:15:27.418Z,6.72
2019-06-01T20:17:56.103Z,8.38
2019-06-01T20:20:26.292Z,7.83
2019-06-01T20:22:54.966Z,6.03
2019-06-01T20:25:23.625Z,7.00
2019-06-01T20:27:52.321Z,6.45
2019-06-01T20:30:22.189Z,6.72
2019-06-01T20:32:50.963Z,7.10
2019-06-01T20:35:20.144Z,7.55
2019-06-01T20:37:48.896Z,8.88
2019-06-01T20:40:18.396Z,7.40
2019-06-01T20:42:47.267Z,10.70
2019-06-01T20:45:16.841Z,8.20
2019-06-01T20:47:45.617Z,7.87
2019-06-01T20:50:14.886Z,8.60
2019-06-01T20:52:43.692Z,12.00
2019-06-01T20:55:12.867Z,8.73
2019-06-01T20:57:41.612Z,8.18
2019-06-01T21:00:11.315Z,13.10
2019-06-01T21:02:39.964Z,7.30
2019-06-01T21:05:09.079Z,9.20
2019-06-01T21:07:37.816Z,7.85
2019-06-01T21:10:08.116Z,10.03
2019-06-01T21:12:44.619Z,11.80
2019-06-01T21:15:07.938Z,9.75
2019-06-01T21:17:36.612Z,8.70
2019-06-01T21:20:06.832Z,8.78
2019-06-01T21:22:35.483Z,9.35
2019-06-01T21:25:04.624Z,9.55
2019-06-01T21:27:33.311Z,8.13
2019-06-01T21:30:02.035Z,9.58
2019-06-01T21:32:30.634Z,9.80
2019-06-01T21:34:59.403Z,9.85
2019-06-01T21:37:28.077Z,10.65
2019-06-01T21:39:56.753Z,11.45
2019-06-01T21:42:26.105Z,10.13
2019-06-01T21:44:54.892Z,11.08
2019-06-01T21:47:23.910Z,10.98
2019-06-01T21:49:52.611Z,17.65
2019-06-01T21:52:22.075Z,10.70
2019-06-01T21:54:50.830Z,10.43
2019-06-01T21:57:20.171Z,12.58
2019-06-01T21:59:48.992Z,11.48
2019-06-01T22:02:18.713Z,11.00
2019-06-01T22:04:47.473Z,11.15
2019-06-01T22:07:17.308Z,11.38
2019-06-01T22:09:46.227Z,13.28
2019-06-01T22:12:14.877Z,10.68
2019-06-01T22:14:43.543Z,10.80
2019-06-01T22:17:12.778Z,12.43
2019-06-01T22:19:41.518Z,12.07
2019-06-01T22:22:10.221Z,13.13
2019-06-01T22:24:38.907Z,12.30
2019-06-01T22:27:07.608Z,11.10
2019-06-01T22:29:36.241Z,12.03
2019-06-01T22:32:04.900Z,11.18
2019-06-01T22:34:33.580Z,12.58
2019-06-01T22:37:02.269Z,13.32
2019-06-01T22:39:30.955Z,15.13
2019-06-01T22:41:59.628Z,11.60
2019-06-01T22:44:28.448Z,11.88
2019-06-01T22:46:57.062Z,13.53
2019-06-01T22:49:26.843Z,13.15
2019-06-01T22:51:55.621Z,13.15
2019-06-01T22:54:25.138Z,14.07
2019-06-01T22:56:53.900Z,11.55
2019-06-01T22:59:22.599Z,11.28
2019-06-01T23:01:51.272Z,12.55
2019-06-01T23:04:20.960Z,12.25
2019-06-01T23:06:49.698Z,12.23
2019-06-01T23:09:18.410Z,13.22
2019-06-01T23:11:47.142Z,12.33
2019-06-01T23:14:15.818Z,13.80
2019-06-01T23:16:44.491Z,14.73
2019-06-01T23:19:13.151Z,14.07
2019-06-01T23:21:41.837Z,15.15
2019-06-01T23:24:10.526Z,12.60
2019-06-01T23:26:39.189Z,13.13
2019-06-01T23:29:07.872Z,17.07
2019-06-01T23:31:36.544Z,15.98
2019-06-01T23:34:05.402Z,16.02
2019-06-01T23:36:34.088Z,15.40
2019-06-01T23:39:03.254Z,15.38
2019-06-01T23:41:32.917Z,14.47
2019-06-01T23:44:11.965Z,14.83
2019-06-01T23:46:33.450Z,14.87
2019-06-01T23:49:02.193Z,14.53
2019-06-01T23:51:31.874Z,15.38
2019-06-01T23:54:00.651Z,17.87
2019-06-01T23:56:29.738Z,17.67
2019-06-01T23:58:58.603Z,17.65
